Patterson, Louisiana
Current Conditions -  °F | °C
As of 2:15 PM on Friday 19 Dec 2014 (Local Time) from KPTN Reporting Station
Overcast Overcast  
Wind Chill: 55°   Ceiling: 500
Heat Index: 55°   Visibility: 5mi
Dew Point: 54°   Wind: 7mph
Humidity: 94%   Direction: 90°E
Pressure: 30.02"   Gusts: NA
Location:  29.69°N, 91.3°W
Report Text: KPTN 192015Z AUTO 09006KT 5SM OVC005 13/12 A3002 RMK AO1
Loading
Personal Weather Stations






























Interactive Weather Map New forecast layout! Learn more

10-Day Weather Forecast

Advertisements
Track Severe Weather on mobile